Time;durP1;ratioP1;P1;durP2;ratioP2;P2;SDS_P1;SDS_P2;PMS_P1;PMS_P2;Temp;Humidity;BMP_temperature;BMP_pressure;BME280_temperature;BME280_humidity;BME280_pressure;Samples;Min_cycle;Max_cycle;Signal;HPM_P1;HPM_P2
2022/05/14 00:00:48;;;;;;;13.40;7.20;;;;;;;;;;5101506;28;20031;-72
2022/05/14 00:03:14;;;;;;;10.95;6.50;;;;;;;;;;5100174;28;20565;-72
2022/05/14 00:05:41;;;;;;;16.10;7.47;;;;;;;;;;5097645;28;20039;-73
2022/05/14 00:08:08;;;;;;;10.43;5.60;;;;;;;;;;5098955;28;20028;-72
2022/05/14 00:13:03;;;;;;;9.05;5.32;;;;;;;;;;5095296;28;20015;-72
2022/05/14 00:13:20;;;;;;;9.48;5.80;;;;;;;;;;5099889;28;20480;-72
2022/05/14 00:15:46;;;;;;;12.98;6.63;;;;;;;;;;5101908;28;20371;-72
2022/05/14 00:18:12;;;;;;;12.02;6.15;;;;;;;;;;5103705;27;20022;-73
2022/05/14 00:20:39;;;;;;;9.90;7.38;;;;;;;;;;5097813;28;20040;-72
2022/05/14 00:23:06;;;;;;;12.45;7.28;;;;;;;;;;5099249;28;20027;-72
2022/05/14 00:25:33;;;;;;;10.20;5.63;;;;;;;;;;5100241;28;20016;-72
2022/05/14 00:27:59;;;;;;;11.52;5.70;;;;;;;;;;5098843;28;20027;-73
2022/05/14 00:30:26;;;;;;;13.98;6.05;;;;;;;;;;5098687;28;20582;-72
2022/05/14 00:32:52;;;;;;;9.82;5.55;;;;;;;;;;5104154;28;20028;-72
2022/05/14 00:35:19;;;;;;;11.18;5.90;;;;;;;;;;5096872;28;20024;-72
2022/05/14 00:37:46;;;;;;;12.48;5.82;;;;;;;;;;5103287;28;20028;-72
2022/05/14 00:40:18;;;;;;;10.25;5.78;;;;;;;;;;5102410;28;20020;-73
2022/05/14 00:42:44;;;;;;;13.88;5.68;;;;;;;;;;5099015;28;20027;-72
2022/05/14 00:45:12;;;;;;;12.23;5.78;;;;;;;;;;5101814;28;20027;-72
2022/05/14 00:47:39;;;;;;;12.02;6.07;;;;;;;;;;5102181;28;20013;-73
2022/05/14 00:50:20;;;;;;;14.57;5.65;;;;;;;;;;5099020;28;20050;-72
2022/05/14 00:52:46;;;;;;;11.75;5.63;;;;;;;;;;5097431;28;20043;-72
2022/05/14 00:55:12;;;;;;;10.50;5.15;;;;;;;;;;5092093;28;20085;-73
2022/05/14 00:57:40;;;;;;;9.38;5.03;;;;;;;;;;5083188;28;20111;-73
2022/05/14 01:00:11;;;;;;;11.35;5.13;;;;;;;;;;5084780;28;20024;-72
2022/05/14 01:02:38;;;;;;;8.02;4.75;;;;;;;;;;5093111;28;20050;-72
2022/05/14 01:05:04;;;;;;;12.73;6.22;;;;;;;;;;5104551;27;20070;-72
2022/05/14 01:07:31;;;;;;;9.38;4.63;;;;;;;;;;5111299;27;20030;-73
2022/05/14 01:10:01;;;;;;;9.82;5.10;;;;;;;;;;5117412;27;20108;-73
2022/05/14 01:12:28;;;;;;;9.13;5.60;;;;;;;;;;5104399;28;20027;-72
2022/05/14 01:14:54;;;;;;;12.25;5.30;;;;;;;;;;5099943;28;20031;-73
2022/05/14 01:17:20;;;;;;;10.32;4.97;;;;;;;;;;5104210;28;20081;-73
2022/05/14 01:19:47;;;;;;;7.03;4.35;;;;;;;;;;5089239;28;20148;-72
2022/05/14 01:22:13;;;;;;;10.68;5.15;;;;;;;;;;5110454;27;20019;-73
2022/05/14 01:27:30;;;;;;;11.48;4.88;;;;;;;;;;5089025;28;20081;-72
2022/05/14 01:29:56;;;;;;;10.50;4.70;;;;;;;;;;5099921;28;20027;-72
2022/05/14 01:32:22;;;;;;;9.52;4.32;;;;;;;;;;5122107;27;20038;-73
2022/05/14 01:34:50;;;;;;;7.28;4.35;;;;;;;;;;5118259;27;20043;-72
2022/05/14 01:37:16;;;;;;;8.85;5.07;;;;;;;;;;5102803;28;20020;-72
2022/05/14 01:39:42;;;;;;;6.90;4.55;;;;;;;;;;5103377;28;20037;-72
2022/05/14 01:42:09;;;;;;;9.50;4.55;;;;;;;;;;5103560;28;20042;-73
2022/05/14 01:44:35;;;;;;;13.52;4.28;;;;;;;;;;5103239;28;20031;-72
2022/05/14 01:47:01;;;;;;;15.00;4.75;;;;;;;;;;5102855;28;20023;-72
2022/05/14 01:49:27;;;;;;;6.40;3.90;;;;;;;;;;5097059;28;20028;-72
2022/05/14 01:51:54;;;;;;;11.32;4.70;;;;;;;;;;5083183;28;20339;-72
2022/05/14 01:54:21;;;;;;;12.43;4.95;;;;;;;;;;5081931;28;20024;-72
2022/05/14 01:56:47;;;;;;;9.93;4.45;;;;;;;;;;5083237;28;20077;-72
2022/05/14 01:59:14;;;;;;;7.90;4.10;;;;;;;;;;5083141;28;20447;-72
2022/05/14 02:01:40;;;;;;;13.85;4.35;;;;;;;;;;5084366;28;20032;-72
2022/05/14 02:04:08;;;;;;;13.68;4.80;;;;;;;;;;5088011;28;20017;-72
2022/05/14 02:06:35;;;;;;;10.02;4.13;;;;;;;;;;5088751;28;20020;-72
2022/05/14 02:09:01;;;;;;;9.13;3.95;;;;;;;;;;5082179;28;20042;-72
2022/05/14 02:11:28;;;;;;;9.93;3.97;;;;;;;;;;5083143;28;20597;-72
2022/05/14 02:13:55;;;;;;;15.63;4.28;;;;;;;;;;5090594;28;20046;-72
2022/05/14 02:16:21;;;;;;;10.75;4.20;;;;;;;;;;5098758;28;20035;-72
2022/05/14 02:18:47;;;;;;;10.10;3.47;;;;;;;;;;5101326;28;20449;-72
2022/05/14 02:21:14;;;;;;;7.80;3.75;;;;;;;;;;5103140;28;20015;-72
2022/05/14 02:23:40;;;;;;;8.38;3.58;;;;;;;;;;5103482;28;20403;-72
2022/05/14 02:26:09;;;;;;;7.35;3.58;;;;;;;;;;5100008;28;20051;-72
2022/05/14 02:28:35;;;;;;;6.93;3.83;;;;;;;;;;5103045;28;20024;-76
2022/05/14 02:31:02;;;;;;;8.90;4.05;;;;;;;;;;5102739;28;20031;-72
2022/05/14 02:33:28;;;;;;;10.00;4.38;;;;;;;;;;5103207;28;20036;-72
2022/05/14 02:35:54;;;;;;;8.15;4.15;;;;;;;;;;5099157;28;20034;-72
2022/05/14 02:38:20;;;;;;;9.20;4.30;;;;;;;;;;5080159;28;20085;-72
2022/05/14 02:40:46;;;;;;;10.38;4.07;;;;;;;;;;5082568;28;20031;-72
2022/05/14 02:43:13;;;;;;;7.80;4.60;;;;;;;;;;5082642;28;20024;-72
2022/05/14 02:45:39;;;;;;;10.23;4.85;;;;;;;;;;5081876;28;20031;-72
2022/05/14 02:48:05;;;;;;;9.32;4.63;;;;;;;;;;5081734;28;20032;-72
2022/05/14 02:50:31;;;;;;;12.52;4.85;;;;;;;;;;5080854;28;20032;-72
2022/05/14 02:52:57;;;;;;;9.45;4.47;;;;;;;;;;5082449;28;20051;-72
2022/05/14 02:55:24;;;;;;;14.45;4.93;;;;;;;;;;5082098;28;20472;-72
2022/05/14 02:57:50;;;;;;;8.88;4.82;;;;;;;;;;5082145;28;20040;-72
2022/05/14 03:00:17;;;;;;;9.98;4.47;;;;;;;;;;5082227;28;20024;-72
2022/05/14 03:02:44;;;;;;;11.27;4.90;;;;;;;;;;5080937;28;20025;-72
2022/05/14 03:05:12;;;;;;;7.35;4.20;;;;;;;;;;5082449;28;20039;-71
2022/05/14 03:07:38;;;;;;;7.18;4.90;;;;;;;;;;5100571;28;20142;-72
2022/05/14 03:10:05;;;;;;;15.73;4.97;;;;;;;;;;5089225;28;20035;-72
2022/05/14 03:12:31;;;;;;;8.52;5.63;;;;;;;;;;5087208;28;20028;-71
2022/05/14 03:14:57;;;;;;;9.32;4.68;;;;;;;;;;5100741;28;20028;-71
2022/05/14 03:17:23;;;;;;;16.00;5.68;;;;;;;;;;5087925;28;20016;-71
2022/05/14 03:19:50;;;;;;;11.55;4.82;;;;;;;;;;5085534;28;20048;-71
2022/05/14 03:22:16;;;;;;;10.88;4.80;;;;;;;;;;5089428;28;20126;-72
2022/05/14 03:24:42;;;;;;;8.68;4.95;;;;;;;;;;5085357;28;20024;-71
2022/05/14 03:27:10;;;;;;;25.52;4.40;;;;;;;;;;5090538;28;20077;-71
2022/05/14 03:29:36;;;;;;;11.57;4.68;;;;;;;;;;5082694;28;20036;-72
2022/05/14 03:32:02;;;;;;;11.57;4.65;;;;;;;;;;5092880;28;20024;-71
2022/05/14 03:34:29;;;;;;;7.88;4.32;;;;;;;;;;5093347;28;20047;-72
2022/05/14 03:36:55;;;;;;;8.05;4.43;;;;;;;;;;5079988;28;20102;-71
2022/05/14 03:39:21;;;;;;;10.13;4.90;;;;;;;;;;5078358;28;20036;-71
2022/05/14 03:41:47;;;;;;;11.10;4.90;;;;;;;;;;5098700;28;20016;-72
2022/05/14 03:44:13;;;;;;;8.07;4.75;;;;;;;;;;5099801;28;20081;-71
2022/05/14 03:46:39;;;;;;;8.95;5.70;;;;;;;;;;5108018;28;20091;-72
2022/05/14 03:49:06;;;;;;;8.15;4.70;;;;;;;;;;5105394;28;20020;-71
2022/05/14 03:51:32;;;;;;;12.48;4.95;;;;;;;;;;5095767;28;20698;-71
2022/05/14 03:53:59;;;;;;;11.95;4.68;;;;;;;;;;5079405;28;20044;-72
2022/05/14 03:56:26;;;;;;;9.18;4.10;;;;;;;;;;5088736;28;20031;-71
2022/05/14 03:58:52;;;;;;;10.20;5.07;;;;;;;;;;5121148;27;20123;-72
2022/05/14 04:01:18;;;;;;;10.05;4.28;;;;;;;;;;5116266;27;20027;-72
2022/05/14 04:03:45;;;;;;;8.82;4.28;;;;;;;;;;5104125;28;20023;-72
2022/05/14 04:06:11;;;;;;;15.35;5.03;;;;;;;;;;5102534;28;20612;-71
2022/05/14 04:08:38;;;;;;;9.63;5.00;;;;;;;;;;5103643;28;20115;-71
2022/05/14 04:11:04;;;;;;;10.02;5.03;;;;;;;;;;5102912;28;20027;-72
2022/05/14 04:13:30;;;;;;;8.48;5.10;;;;;;;;;;5102541;28;20031;-72
2022/05/14 04:15:56;;;;;;;8.35;5.05;;;;;;;;;;5103616;28;20020;-71
2022/05/14 04:18:26;;;;;;;15.68;5.72;;;;;;;;;;5097491;28;20089;-71
2022/05/14 04:20:56;;;;;;;7.55;4.32;;;;;;;;;;5083031;28;20032;-72
2022/05/14 04:23:22;;;;;;;9.27;5.18;;;;;;;;;;5081170;28;20043;-72
2022/05/14 04:25:50;;;;;;;8.43;4.93;;;;;;;;;;5083514;28;20028;-72
2022/05/14 04:28:16;;;;;;;6.95;4.72;;;;;;;;;;5084683;28;20027;-71
2022/05/14 04:30:43;;;;;;;10.55;4.85;;;;;;;;;;5093986;28;20099;-71
2022/05/14 04:33:10;;;;;;;12.02;5.43;;;;;;;;;;5086930;28;20060;-72
2022/05/14 04:35:36;;;;;;;8.35;4.43;;;;;;;;;;5088040;28;20034;-72
2022/05/14 04:38:02;;;;;;;15.32;5.75;;;;;;;;;;5087092;28;20028;-72
2022/05/14 04:40:28;;;;;;;7.32;5.00;;;;;;;;;;5085478;28;20644;-71
2022/05/14 04:42:54;;;;;;;10.75;5.75;;;;;;;;;;5096156;28;20097;-71
2022/05/14 04:45:20;;;;;;;11.05;5.60;;;;;;;;;;5097753;28;20023;-72
2022/05/14 04:47:46;;;;;;;10.10;5.90;;;;;;;;;;5097784;28;20047;-72
2022/05/14 04:50:13;;;;;;;9.00;6.10;;;;;;;;;;5098789;27;20043;-72
2022/05/14 04:52:39;;;;;;;10.82;6.20;;;;;;;;;;5090259;27;20024;-72
2022/05/14 04:55:06;;;;;;;10.50;5.57;;;;;;;;;;5082045;28;20110;-71
2022/05/14 04:57:32;;;;;;;9.07;5.30;;;;;;;;;;5082260;28;20020;-72
2022/05/14 04:59:58;;;;;;;14.82;6.05;;;;;;;;;;5083066;28;20102;-72
2022/05/14 05:05:12;;;;;;;10.95;4.97;;;;;;;;;;5102454;28;20047;-71
2022/05/14 05:07:38;;;;;;;9.60;5.88;;;;;;;;;;5100848;28;20020;-72
2022/05/14 05:10:05;;;;;;;12.00;5.78;;;;;;;;;;5101788;28;20035;-72
2022/05/14 05:12:31;;;;;;;9.75;5.40;;;;;;;;;;5101901;28;20055;-72
2022/05/14 05:14:57;;;;;;;13.68;5.50;;;;;;;;;;5102183;28;20036;-71
2022/05/14 05:17:23;;;;;;;11.75;6.30;;;;;;;;;;5100617;28;20035;-72
2022/05/14 05:19:49;;;;;;;14.38;5.80;;;;;;;;;;5102123;28;20051;-72
2022/05/14 05:22:15;;;;;;;11.05;5.88;;;;;;;;;;5090874;28;20024;-72
2022/05/14 05:24:42;;;;;;;12.52;5.72;;;;;;;;;;5081572;28;20529;-72
2022/05/14 05:27:08;;;;;;;14.07;6.38;;;;;;;;;;5081536;28;20031;-72
2022/05/14 05:29:34;;;;;;;10.32;4.82;;;;;;;;;;5081059;28;20465;-72
2022/05/14 05:32:00;;;;;;;12.43;5.93;;;;;;;;;;5080111;28;20043;-72
2022/05/14 05:34:27;;;;;;;9.25;4.93;;;;;;;;;;5081353;28;20104;-72
2022/05/14 05:36:53;;;;;;;11.75;6.22;;;;;;;;;;5081739;28;20028;-72
2022/05/14 05:39:19;;;;;;;14.45;6.13;;;;;;;;;;5079983;28;20036;-71
2022/05/14 05:41:45;;;;;;;13.30;7.35;;;;;;;;;;5081526;28;20027;-72
2022/05/14 05:44:12;;;;;;;14.20;8.50;;;;;;;;;;5083265;28;20020;-72
2022/05/14 05:46:38;;;;;;;13.18;7.97;;;;;;;;;;5101521;28;20024;-71
2022/05/14 05:49:07;;;;;;;9.90;6.20;;;;;;;;;;5100782;28;20576;-72
2022/05/14 05:51:33;;;;;;;11.55;7.25;;;;;;;;;;5100204;28;20115;-72
2022/05/14 05:56:47;;;;;;;12.38;8.40;;;;;;;;;;5081660;28;20109;-72
2022/05/14 05:59:14;;;;;;;9.88;6.97;;;;;;;;;;5095406;28;20035;-72
2022/05/14 06:01:40;;;;;;;15.13;8.50;;;;;;;;;;5098689;28;20039;-72
2022/05/14 06:04:07;;;;;;;10.98;7.60;;;;;;;;;;5090007;28;20019;-72
2022/05/14 06:06:33;;;;;;;18.80;8.38;;;;;;;;;;5092344;28;20033;-72
2022/05/14 06:09:00;;;;;;;13.68;7.88;;;;;;;;;;5091062;28;20395;-72
2022/05/14 06:11:26;;;;;;;11.05;8.93;;;;;;;;;;5080225;28;20031;-72
2022/05/14 06:13:52;;;;;;;14.35;8.77;;;;;;;;;;5079904;28;20051;-71
2022/05/14 06:16:19;;;;;;;10.10;7.45;;;;;;;;;;5093651;28;20039;-72
2022/05/14 06:18:45;;;;;;;9.55;7.30;;;;;;;;;;5092528;28;20545;-72
2022/05/14 06:21:12;;;;;;;17.35;8.98;;;;;;;;;;5088469;28;20667;-71
2022/05/14 06:23:38;;;;;;;13.15;8.48;;;;;;;;;;5086855;28;20059;-72
2022/05/14 06:26:04;;;;;;;28.38;11.02;;;;;;;;;;5089263;28;20778;-73
2022/05/14 06:28:31;;;;;;;13.90;9.70;;;;;;;;;;5081207;28;20059;-74
2022/05/14 06:30:57;;;;;;;21.40;11.20;;;;;;;;;;5081611;28;20032;-75
2022/05/14 06:33:26;;;;;;;27.17;15.70;;;;;;;;;;5079722;28;20036;-74
2022/05/14 06:35:52;;;;;;;24.98;15.05;;;;;;;;;;5077650;28;20036;-73
2022/05/14 06:38:19;;;;;;;21.05;13.82;;;;;;;;;;5082415;28;20911;-74
2022/05/14 06:40:46;;;;;;;23.75;15.38;;;;;;;;;;5087582;28;20711;-73
2022/05/14 06:43:14;;;;;;;18.65;11.70;;;;;;;;;;5079242;28;20564;-73
2022/05/14 06:45:40;;;;;;;12.23;8.77;;;;;;;;;;5079807;28;20020;-73
2022/05/14 06:48:06;;;;;;;14.25;8.45;;;;;;;;;;5079608;28;20028;-74
2022/05/14 06:50:34;;;;;;;12.23;8.35;;;;;;;;;;5079801;28;20024;-74
2022/05/14 06:53:02;;;;;;;11.52;7.65;;;;;;;;;;5082779;28;20073;-72
2022/05/14 06:55:32;;;;;;;10.85;6.50;;;;;;;;;;5081786;28;20665;-72
2022/05/14 06:57:59;;;;;;;10.63;6.10;;;;;;;;;;5082129;28;20024;-72
2022/05/14 07:00:25;;;;;;;12.48;6.30;;;;;;;;;;5094849;28;20085;-73
2022/05/14 07:02:51;;;;;;;12.73;6.43;;;;;;;;;;5083707;28;20028;-73
2022/05/14 07:08:02;;;;;;;9.27;5.45;;;;;;;;;;5082392;28;20084;-73
2022/05/14 07:10:29;;;;;;;10.68;5.80;;;;;;;;;;5080286;28;20028;-72
2022/05/14 07:12:56;;;;;;;11.50;5.65;;;;;;;;;;5081497;28;20526;-73
2022/05/14 07:15:22;;;;;;;12.05;5.53;;;;;;;;;;5093474;28;20034;-73
2022/05/14 07:17:49;;;;;;;8.75;5.40;;;;;;;;;;5102655;28;20074;-73
2022/05/14 07:20:15;;;;;;;10.60;5.93;;;;;;;;;;5091131;28;20060;-72
2022/05/14 07:22:41;;;;;;;12.52;5.45;;;;;;;;;;5079262;28;20036;-72
2022/05/14 07:25:08;;;;;;;12.38;6.57;;;;;;;;;;5076949;28;20617;-72
2022/05/14 07:27:35;;;;;;;11.43;6.40;;;;;;;;;;5080123;28;20476;-72
2022/05/14 07:30:01;;;;;;;8.18;5.47;;;;;;;;;;5079281;28;20032;-72
2022/05/14 07:32:28;;;;;;;8.98;5.38;;;;;;;;;;5079801;28;20161;-72
2022/05/14 07:34:54;;;;;;;9.60;5.07;;;;;;;;;;5089881;28;20035;-72
2022/05/14 07:37:23;;;;;;;12.20;5.25;;;;;;;;;;5089459;28;20031;-72
2022/05/14 07:39:52;;;;;;;10.15;5.55;;;;;;;;;;5080844;28;20032;-72
2022/05/14 07:42:30;;;;;;;11.75;6.03;;;;;;;;;;5081426;28;20020;-72
2022/05/14 07:44:57;;;;;;;11.63;5.80;;;;;;;;;;5090082;28;20430;-72
2022/05/14 07:47:23;;;;;;;12.80;6.35;;;;;;;;;;5081874;28;20443;-72
2022/05/14 07:49:50;;;;;;;10.32;5.78;;;;;;;;;;5082998;28;20779;-72
2022/05/14 07:52:17;;;;;;;9.43;5.82;;;;;;;;;;5081816;28;20085;-72
2022/05/14 07:54:43;;;;;;;10.65;6.60;;;;;;;;;;5080599;28;20097;-72
2022/05/14 07:57:09;;;;;;;11.55;6.50;;;;;;;;;;5083182;28;20031;-72
2022/05/14 07:59:36;;;;;;;9.65;5.55;;;;;;;;;;5082224;28;20020;-72
2022/05/14 08:02:05;;;;;;;11.07;6.85;;;;;;;;;;5081789;28;20027;-72
2022/05/14 08:04:31;;;;;;;11.20;6.35;;;;;;;;;;5080606;28;20024;-72
2022/05/14 08:06:57;;;;;;;11.40;6.15;;;;;;;;;;5084915;28;20028;-72
2022/05/14 08:09:24;;;;;;;10.73;6.28;;;;;;;;;;5086155;27;20418;-70
2022/05/14 08:11:52;;;;;;;12.50;8.82;;;;;;;;;;5088640;28;20475;-71
2022/05/14 08:14:19;;;;;;;19.67;8.88;;;;;;;;;;5081392;27;20042;-72
2022/05/14 08:16:45;;;;;;;16.40;8.77;;;;;;;;;;5082426;28;20038;-71
2022/05/14 08:19:12;;;;;;;20.20;9.40;;;;;;;;;;5082486;28;20903;-71
2022/05/14 08:24:34;;;;;;;13.40;9.70;;;;;;;;;;5081752;28;20395;-73
2022/05/14 08:27:09;;;;;;;17.10;8.80;;;;;;;;;;5080510;28;20020;-73
2022/05/14 08:29:36;;;;;;;14.68;7.82;;;;;;;;;;5080490;28;20024;-73
2022/05/14 08:32:03;;;;;;;12.57;7.85;;;;;;;;;;5082666;28;20476;-73
2022/05/14 08:34:29;;;;;;;10.10;7.00;;;;;;;;;;5082631;28;20032;-72
2022/05/14 08:36:56;;;;;;;13.18;7.43;;;;;;;;;;5082766;28;20020;-71
2022/05/14 08:39:22;;;;;;;12.38;8.05;;;;;;;;;;5084141;28;20446;-73
2022/05/14 08:41:49;;;;;;;13.93;9.07;;;;;;;;;;5082250;28;20079;-72
2022/05/14 08:44:17;;;;;;;14.30;8.77;;;;;;;;;;5081269;28;20035;-73
2022/05/14 08:46:45;;;;;;;17.42;9.77;;;;;;;;;;5082059;28;20028;-72
2022/05/14 08:49:17;;;;;;;13.18;9.40;;;;;;;;;;5098369;28;20041;-71
2022/05/14 08:51:48;;;;;;;16.10;8.85;;;;;;;;;;5102375;28;20693;-71
2022/05/14 08:54:15;;;;;;;14.38;7.60;;;;;;;;;;5100981;28;20043;-70
2022/05/14 08:56:44;;;;;;;16.67;7.35;;;;;;;;;;5102059;28;20635;-70
2022/05/14 08:59:19;;;;;;;13.30;7.60;;;;;;;;;;5101764;28;20027;-73
2022/05/14 09:01:46;;;;;;;13.77;7.07;;;;;;;;;;5102386;28;20030;-73
2022/05/14 09:04:13;;;;;;;13.70;7.72;;;;;;;;;;5084005;28;20028;-73
2022/05/14 09:06:40;;;;;;;16.35;8.60;;;;;;;;;;5080089;28;20020;-73
2022/05/14 09:09:07;;;;;;;11.90;8.32;;;;;;;;;;5080782;28;20105;-73
2022/05/14 09:11:42;;;;;;;15.55;8.02;;;;;;;;;;5081079;28;20020;-73
2022/05/14 09:14:39;;;;;;;12.95;8.02;;;;;;;;;;5081620;28;20121;-73
2022/05/14 09:17:16;;;;;;;11.80;6.45;;;;;;;;;;5064761;28;20040;-73
2022/05/14 09:19:44;;;;;;;10.75;5.57;;;;;;;;;;5079805;28;20036;-73
2022/05/14 09:22:10;;;;;;;13.60;7.80;;;;;;;;;;5081007;28;20032;-73
2022/05/14 09:24:40;;;;;;;12.00;7.57;;;;;;;;;;5080835;28;20035;-73
2022/05/14 09:27:21;;;;;;;11.40;6.90;;;;;;;;;;5081821;28;20035;-73
2022/05/14 09:29:50;;;;;;;12.88;7.60;;;;;;;;;;5077558;28;20031;-73
2022/05/14 09:32:22;;;;;;;12.18;8.00;;;;;;;;;;5082692;28;20527;-73
2022/05/14 09:34:48;;;;;;;;;;;;;;;;;;5100894;28;20039;-71
2022/05/14 09:37:19;;;;;;;10.93;7.40;;;;;;;;;;5100859;28;19908;-72
2022/05/14 09:39:56;;;;;;;14.85;6.97;;;;;;;;;;5099369;28;20035;-72
2022/05/14 09:42:27;;;;;;;11.55;7.82;;;;;;;;;;5093032;28;20028;-72
2022/05/14 09:44:55;;;;;;;17.75;8.57;;;;;;;;;;5082339;28;20024;-73
2022/05/14 09:47:30;;;;;;;10.25;7.10;;;;;;;;;;5095150;28;20040;-75
2022/05/14 09:49:59;;;;;;;15.93;7.95;;;;;;;;;;5080542;28;20038;-73
2022/05/14 09:52:30;;;;;;;10.25;7.60;;;;;;;;;;5081220;28;20089;-73
2022/05/14 09:54:57;;;;;;;12.38;7.45;;;;;;;;;;5084922;28;20039;-73
2022/05/14 09:57:47;;;;;;;13.70;7.03;;;;;;;;;;5099571;28;20039;-73
2022/05/14 10:00:13;;;;;;;10.05;5.70;;;;;;;;;;5100574;28;20039;-73
2022/05/14 10:02:58;;;;;;;12.30;8.57;;;;;;;;;;5101059;28;20031;-73
2022/05/14 10:05:42;;;;;;;17.85;10.48;;;;;;;;;;5099412;28;20028;-73
2022/05/14 10:08:27;;;;;;;10.48;6.25;;;;;;;;;;5100740;28;20031;-73
2022/05/14 10:11:01;;;;;;;17.63;8.52;;;;;;;;;;5100673;28;20020;-73
2022/05/14 10:13:44;;;;;;;9.98;5.95;;;;;;;;;;5099447;28;20484;-73
2022/05/14 10:16:31;;;;;;;8.95;5.18;;;;;;;;;;5100854;28;20201;-73
2022/05/14 10:19:16;;;;;;;14.02;7.95;;;;;;;;;;5088477;28;20918;-73
2022/05/14 10:21:42;;;;;;;13.75;6.93;;;;;;;;;;5080047;28;20028;-73
2022/05/14 10:27:07;;;;;;;12.18;8.18;;;;;;;;;;5099463;28;20038;-73
2022/05/14 10:29:44;;;;;;;9.32;5.68;;;;;;;;;;5099007;28;20081;-73
2022/05/14 10:32:13;;;;;;;10.65;4.75;;;;;;;;;;5100680;28;20050;-73
2022/05/14 10:34:52;;;;;;;8.02;5.88;;;;;;;;;;5100166;28;20551;-73
2022/05/14 10:37:32;;;;;;;39.80;26.00;;;;;;;;;;5099325;28;20034;-73
2022/05/14 10:40:20;;;;;;;13.70;8.10;;;;;;;;;;5100634;28;20023;-73
2022/05/14 10:42:59;;;;;;;10.52;4.57;;;;;;;;;;5100553;28;20030;-73
2022/05/14 10:45:32;;;;;;;8.73;4.70;;;;;;;;;;5100595;28;20542;-73
2022/05/14 10:48:04;;;;;;;7.70;4.85;;;;;;;;;;5099225;28;20024;-73
2022/05/14 10:50:31;;;;;;;7.53;4.72;;;;;;;;;;5100637;28;20840;-73
2022/05/14 10:52:58;;;;;;;10.68;4.28;;;;;;;;;;5091028;28;20032;-73
2022/05/14 10:55:30;;;;;;;9.90;4.50;;;;;;;;;;5081139;28;20027;-73
2022/05/14 10:58:01;;;;;;;6.82;4.20;;;;;;;;;;5079726;28;20434;-73
2022/05/14 11:00:28;;;;;;;;;;;;;;;;;;5080439;28;20532;-73
2022/05/14 11:03:06;;;;;;;8.55;4.40;;;;;;;;;;5080255;28;19912;-73
2022/05/14 11:05:37;;;;;;;12.98;4.63;;;;;;;;;;5080205;28;20113;-73
2022/05/14 11:08:11;;;;;;;8.77;4.70;;;;;;;;;;5079305;28;20046;-73
2022/05/14 11:10:37;;;;;;;10.55;4.22;;;;;;;;;;5083539;28;20024;-73
2022/05/14 11:13:11;;;;;;;10.15;4.47;;;;;;;;;;5084026;28;20081;-73
2022/05/14 11:15:39;;;;;;;9.75;3.95;;;;;;;;;;5083719;28;20093;-73
2022/05/14 11:18:05;;;;;;;6.10;4.03;;;;;;;;;;5084234;28;20069;-73
2022/05/14 11:20:31;;;;;;;10.25;3.97;;;;;;;;;;5082027;28;20502;-73
2022/05/14 11:23:11;;;;;;;7.65;4.18;;;;;;;;;;5083506;28;20039;-73
2022/05/14 11:25:38;;;;;;;8.93;3.90;;;;;;;;;;5083975;28;20380;-73
2022/05/14 11:28:08;;;;;;;8.82;4.10;;;;;;;;;;5098606;28;20024;-73
2022/05/14 11:30:41;;;;;;;10.35;3.97;;;;;;;;;;5102226;28;20020;-73
2022/05/14 11:33:27;;;;;;;10.13;3.72;;;;;;;;;;5102671;28;20189;-73
2022/05/14 11:36:16;;;;;;;9.75;4.47;;;;;;;;;;5085746;28;20487;-72
2022/05/14 11:38:45;;;;;;;10.65;3.63;;;;;;;;;;5085290;28;20108;-73
2022/05/14 11:41:13;;;;;;;10.20;3.75;;;;;;;;;;5084824;28;20031;-73
2022/05/14 11:43:43;;;;;;;8.85;3.70;;;;;;;;;;5104174;27;20383;-75
2022/05/14 11:46:21;;;;;;;8.95;3.83;;;;;;;;;;5093483;28;20016;-73
2022/05/14 11:48:53;;;;;;;8.65;3.97;;;;;;;;;;5088765;28;20038;-72
2022/05/14 11:51:23;;;;;;;8.20;3.95;;;;;;;;;;5096020;28;20035;-73
2022/05/14 11:53:49;;;;;;;9.70;4.28;;;;;;;;;;5088776;27;20038;-72
2022/05/14 11:56:33;;;;;;;8.27;3.70;;;;;;;;;;5126030;27;20076;-72
2022/05/14 11:59:21;;;;;;;7.35;3.65;;;;;;;;;;5107544;27;20023;-73
2022/05/14 12:01:49;;;;;;;5.00;4.05;;;;;;;;;;5095704;28;20069;-72
2022/05/14 12:04:19;;;;;;;9.80;3.97;;;;;;;;;;5102300;28;20023;-73
2022/05/14 12:06:58;;;;;;;7.47;4.50;;;;;;;;;;5100870;28;20389;-72
2022/05/14 12:09:34;;;;;;;9.63;3.97;;;;;;;;;;5095398;28;20020;-73
2022/05/14 12:12:02;;;;;;;7.85;4.43;;;;;;;;;;5089455;28;20036;-72
2022/05/14 12:14:34;;;;;;;10.13;3.85;;;;;;;;;;5099222;27;20034;-73
2022/05/14 12:17:02;;;;;;;7.35;4.10;;;;;;;;;;5106720;27;20524;-72
2022/05/14 12:19:41;;;;;;;6.43;3.92;;;;;;;;;;5122423;27;20067;-73
2022/05/14 12:22:07;;;;;;;9.95;3.88;;;;;;;;;;5108750;27;20429;-73
2022/05/14 12:24:40;;;;;;;9.90;4.07;;;;;;;;;;5085969;28;20519;-72
2022/05/14 12:27:25;;;;;;;6.18;3.97;;;;;;;;;;5092370;28;20111;-72
2022/05/14 12:29:56;;;;;;;7.22;3.78;;;;;;;;;;5093351;27;20520;-73
2022/05/14 12:35:22;;;;;;;5.30;3.75;;;;;;;;;;5115144;27;20122;-74
2022/05/14 12:37:51;;;;;;;12.95;3.85;;;;;;;;;;5101695;27;20023;-72
2022/05/14 12:40:23;;;;;;;7.60;4.00;;;;;;;;;;5100744;28;20031;-72
2022/05/14 12:42:51;;;;;;;11.35;4.10;;;;;;;;;;5100594;28;20028;-73
2022/05/14 12:45:17;;;;;;;7.05;3.72;;;;;;;;;;5101241;28;20034;-73
2022/05/14 12:47:43;;;;;;;7.15;4.45;;;;;;;;;;5101485;28;20114;-72
2022/05/14 12:50:20;;;;;;;5.65;3.70;;;;;;;;;;5105342;27;20027;-72
2022/05/14 12:52:57;;;;;;;6.70;3.85;;;;;;;;;;5123107;27;20558;-73
2022/05/14 12:55:25;;;;;;;9.00;4.38;;;;;;;;;;5122693;27;20039;-73
2022/05/14 12:57:52;;;;;;;5.78;3.28;;;;;;;;;;5122166;27;20055;-72
2022/05/14 13:00:18;;;;;;;9.55;4.15;;;;;;;;;;5122203;27;20019;-73
2022/05/14 13:02:51;;;;;;;6.82;3.60;;;;;;;;;;5107364;27;20038;-72
2022/05/14 13:05:22;;;;;;;9.77;4.03;;;;;;;;;;5099867;28;20012;-73
2022/05/14 13:07:49;;;;;;;9.32;4.05;;;;;;;;;;5098587;28;20031;-73
2022/05/14 13:10:21;;;;;;;9.85;4.13;;;;;;;;;;5102831;27;20479;-73
2022/05/14 13:12:53;;;;;;;15.85;4.47;;;;;;;;;;5097956;28;20031;-73
2022/05/14 13:15:19;;;;;;;10.57;4.28;;;;;;;;;;5114949;27;20034;-72
2022/05/14 13:17:46;;;;;;;7.72;3.90;;;;;;;;;;5106693;27;20020;-74
2022/05/14 13:20:20;;;;;;;7.57;3.97;;;;;;;;;;5092150;28;20108;-72
2022/05/14 13:22:46;;;;;;;5.45;3.50;;;;;;;;;;5083738;28;20028;-73
2022/05/14 13:25:25;;;;;;;6.93;3.38;;;;;;;;;;5085823;28;20019;-73
2022/05/14 13:27:51;;;;;;;5.60;3.20;;;;;;;;;;5099681;28;20023;-72
2022/05/14 13:30:29;;;;;;;6.50;3.97;;;;;;;;;;5098918;28;20027;-72
2022/05/14 13:33:06;;;;;;;7.82;4.13;;;;;;;;;;5101245;28;20588;-72
2022/05/14 13:38:17;;;;;;;6.75;4.15;;;;;;;;;;5082382;28;20673;-72
2022/05/14 13:40:46;;;;;;;9.95;3.92;;;;;;;;;;5080423;28;20028;-74
2022/05/14 13:43:31;;;;;;;10.77;4.20;;;;;;;;;;5081245;28;20028;-72
2022/05/14 13:45:59;;;;;;;10.20;4.10;;;;;;;;;;5093396;28;20135;-72
2022/05/14 13:48:30;;;;;;;10.05;4.32;;;;;;;;;;5080554;28;20522;-72
2022/05/14 13:51:03;;;;;;;8.52;4.22;;;;;;;;;;5082309;28;20034;-73
2022/05/14 13:53:31;;;;;;;10.65;4.47;;;;;;;;;;5081767;28;20136;-72
2022/05/14 13:56:08;;;;;;;11.50;5.10;;;;;;;;;;5092451;28;20028;-72
2022/05/14 13:58:37;;;;;;;7.90;4.22;;;;;;;;;;5086294;28;20024;-73
2022/05/14 14:01:05;;;;;;;9.10;4.63;;;;;;;;;;5094014;28;20024;-73
2022/05/14 14:03:42;;;;;;;7.32;4.50;;;;;;;;;;5097787;28;20171;-74
2022/05/14 14:06:09;;;;;;;9.35;4.47;;;;;;;;;;5085911;28;20032;-72
2022/05/14 14:08:35;;;;;;;8.75;4.85;;;;;;;;;;5099445;27;20024;-73
2022/05/14 14:11:02;;;;;;;7.25;4.30;;;;;;;;;;5087460;28;20023;-74
2022/05/14 14:13:28;;;;;;;11.23;4.38;;;;;;;;;;5082995;28;20039;-74
2022/05/14 14:15:54;;;;;;;7.57;4.55;;;;;;;;;;5094691;28;20031;-74
2022/05/14 14:18:21;;;;;;;7.78;4.05;;;;;;;;;;5089991;28;20028;-74
2022/05/14 14:20:52;;;;;;;8.80;4.07;;;;;;;;;;5088270;28;20081;-74
2022/05/14 14:23:21;;;;;;;12.00;4.57;;;;;;;;;;5102014;27;20012;-74
2022/05/14 14:25:47;;;;;;;6.65;3.85;;;;;;;;;;5092297;28;20115;-74
2022/05/14 14:28:14;;;;;;;5.45;3.97;;;;;;;;;;5095369;28;20019;-74
2022/05/14 14:30:41;;;;;;;7.78;3.95;;;;;;;;;;5090731;28;20076;-73
2022/05/14 14:33:08;;;;;;;7.75;4.13;;;;;;;;;;5079281;28;20034;-74
2022/05/14 14:35:35;;;;;;;8.50;4.32;;;;;;;;;;5085967;28;20911;-73
2022/05/14 14:38:02;;;;;;;7.38;3.38;;;;;;;;;;5093835;27;20107;-77
2022/05/14 14:40:28;;;;;;;11.63;4.18;;;;;;;;;;5094175;27;20024;-77
2022/05/14 14:42:55;;;;;;;11.00;4.60;;;;;;;;;;5093535;28;20023;-74
2022/05/14 14:45:21;;;;;;;10.40;4.00;;;;;;;;;;5092198;28;20020;-81
2022/05/14 14:47:49;;;;;;;11.88;4.68;;;;;;;;;;5078927;28;20456;-72
2022/05/14 14:50:16;;;;;;;6.72;3.90;;;;;;;;;;5087144;28;20051;-71
2022/05/14 14:52:42;;;;;;;10.57;4.00;;;;;;;;;;5089893;28;20430;-73
2022/05/14 14:55:09;;;;;;;7.45;4.13;;;;;;;;;;5094189;28;20024;-72
2022/05/14 14:57:35;;;;;;;7.82;4.60;;;;;;;;;;5088058;28;20795;-73
2022/05/14 15:00:01;;;;;;;7.68;4.20;;;;;;;;;;5092719;28;20035;-73
2022/05/14 15:02:34;;;;;;;9.55;4.20;;;;;;;;;;5085924;28;20111;-73
2022/05/14 15:05:04;;;;;;;10.48;4.45;;;;;;;;;;5082792;28;20592;-73
2022/05/14 15:07:31;;;;;;;9.10;4.38;;;;;;;;;;5095544;28;20035;-75